Tiempo atmosférico en la estación meteorológica de Fuente De Piedra, Málaga (423 m.)



Fecha
DESCASC
Temp. máxima en grados centígrados (hora)
DESCASC
Temp. mínima en grados centígrados (hora)
DESCASC
Temp. media en grados centígrados
DESCASC
Racha de viento máxima en m/sg (hora)
DESCASC
Velocidad máxima media en intervalos de 10 minutos(hora)
DESCASC
Precipitaciones diarias en mm
DESCASC
Precipitaciones de 00:00 a 06:00 en mm
DESCASC
Precipitaciones de 06:00 a 12:00 en mm
DESCASC
Precipitaciones de 12:00 a 18:00 en mm
DESCASC
Precipitaciones de 18:00 a 24:00 en mm
DESCASC
20-09-2018 30.1 (16:40) 18.5 (08:00) 24.3 10.28 (15:40) 7.22 (18:50) 0 0 0 0 0
19-09-2018 32.2 (16:20) 18.2 (07:40) 25.2 7.78 (19:00) 5.83 (18:50) 0 0 0 0 0
18-09-2018 32.1 (16:50) 18.2 (08:10) 25.1 11.11 (18:50) 7.78 (18:50) 3 0 0 0 3
17-09-2018 29 (16:20) 19.2 (08:00) 24.1 11.39 (14:20) 7.5 (15:20) 0 0 0 0 0
16-09-2018 30.1 (16:50) 16.7 (00:00) 23.4 10 (18:20) 6.67 (19:10) 0 0 0 0 0
15-09-2018 26.4 (13:20) 15.7 (00:00) 21 6.67 (15:00) 5 (15:00) 16.8 0 0 16.8 0
14-09-2018 27.3 (15:00) 17.9 (00:00) 22.6 12.5 (17:10) 8.61 (17:10) 2.6 0 0 1.2 1.4
13-09-2018 31.6 (15:10) 17.6 (00:00) 24.6 7.5 (18:10) 5 (18:10) 0 0 0 0 0
12-09-2018 30.5 (18:10) 20.8 (00:00) 25.6 11.67 (02:00) 8.33 (02:10) 0 0 0 0 0
11-09-2018 30.8 (16:30) 17.5 (00:00) 24.1 12.78 (17:10) 8.33 (19:30) 0 0 0 0 0
10-09-2018 30.3 (16:10) 14.2 (00:00) 22.2 11.11 (20:00) 8.06 (19:40) 0 0 0 0 0
09-09-2018 28.7 (15:00) 16 (00:00) 22.4 10.56 (15:50) 7.78 (15:50) 0 0 0 0 0
08-09-2018 23.1 (12:30) 17 (00:00) 20.1 10 (00:30) 6.11 (00:20) 0.2 0 0 0.2 0
07-09-2018 30.2 (17:00) 17 (00:00) 23.6 12.22 (23:50) 7.78 (23:50) 0 0 0 0 0
06-09-2018 29.1 (17:20) 14.1 (00:00) 21.6 7.22 (14:50) 4.17 (21:20) 0 0 0 0 0
05-09-2018 28.3 (16:10) 16.3 (00:00) 22.3 8.89 (20:20) 5.83 (20:30) 0 0 0 0 0
04-09-2018 29.3 (16:50) 15.5 (00:00) 22.4 9.44 (16:40) 6.11 (18:40) 0 0 0 0 0
03-09-2018 33.2 (16:30) 19.2 (00:00) 26.2 9.72 (18:00) 6.67 (19:00) 0 0 0 0 0
02-09-2018 33.2 (15:50) 22.9 (00:00) 28.1 12.5 (16:20) 9.17 (16:20) 0 0 0 0 0
01-09-2018 31.8 (16:50) 21.2 (00:00) 26.5 12.5 (14:50) 8.61 (15:10) 0 0 0 0 0
31-08-2018 32.7 (16:40) 18.9 (00:00) 25.8 11.39 (00:50) 7.5 (00:50) 0 0 0 0 0
30-08-2018 31.4 (17:40) 15.5 (00:00) 23.4 10.56 (23:59) 7.22 (13:00) 0 0 0 0 0
29-08-2018 32 (17:20) 18.3 (00:00) 25.1 8.61 (19:40) 6.11 (19:40) 0 0 0 0 0
28-08-2018 35 (16:40) 20 (00:00) 27.5 17.22 (02:40) 12.22 (02:50) 0 0 0 0 0
27-08-2018 35.4 (16:30) 20.4 (00:00) 27.9 13.89 (22:20) 9.72 (17:50) 0 0 0 0 0
26-08-2018 34.5 (17:20) 17.7 (00:00) 26.1 11.67 (15:10) 8.61 (15:10) 0 0 0 0 0
25-08-2018 37.1 (14:30) 18.3 (00:00) 27.7 7.78 (19:10) 4.72 (19:00) 0 0 0 0 0
24-08-2018 36.4 (17:30) 17.6 (00:00) 27 7.22 (16:20) 5 (20:10) 0 0 0 0 0

Gráficas

Temp. máximas Temp. mínimas Temp. medias Precipitaciones Rachas de viento máximas Velocidades máximas media en intervalos de 10 minutos

Datos horarios

Fecha y hora oficial Temperatura (ºC) Velocidad del viento (km/h) Dirección del viento Racha (km/h) Dirección de racha Precipitación (mm) Presión (hPa) Tendencia (hPa) Humedad (%)
2018-09-22 23:00:00 24.6 12 Sudoeste 21 Sudoeste 0 -- -- 40
2018-09-22 22:00:00 25 11 Sur 21 Sur 0 -- -- 45
2018-09-22 21:00:00 25.9 14 Sur 32 Sur 0 -- -- 43
2018-09-22 20:00:00 27.4 22 Sur 36 Sur 0 -- -- 37
2018-09-22 19:00:00 29.6 19 Sur 39 Sur 0 -- -- 35
2018-09-22 18:00:00 30 21 Sur 38 Sudoeste 0 -- -- 38
2018-09-22 17:00:00 31.7 23 Sur 39 Sudoeste 0 -- -- 37
2018-09-22 16:00:00 32.8 18 Sur 30 Sur 0 -- -- 36
2018-09-22 15:00:00 33.1 16 Sur 31 Sur 0 -- -- 33
2018-09-22 14:00:00 32.5 10 Sudoeste 19 Sudoeste 0 -- -- 32
2018-09-22 13:00:00 31.2 6 Sudoeste 16 Sudoeste 0 -- -- 31
2018-09-22 12:00:00 28.1 8 Sudoeste 14 Sudoeste 0 -- -- 39
2018-09-22 11:00:00 23.5 5 Sudoeste 8 Sudoeste 0 -- -- 51
2018-09-22 10:00:00 20.1 4 Sudoeste 6 Sudoeste 0 -- -- 64
2018-09-22 09:00:00 17.9 0 Calma 6 Sudoeste 0 -- -- 74
2018-09-22 08:00:00 16.7 6 Sur 7 Sur 0 -- -- 77
2018-09-22 07:00:00 17.2 0 Calma 3 Sur 0 -- -- 73
2018-09-22 06:00:00 17.5 3 Sur 4 Sur 0 -- -- 73
2018-09-22 05:00:00 18.1 0 Calma 2 Norte 0 -- -- 70
2018-09-22 04:00:00 18.6 0 Calma 3 Sur 0 -- -- 67
2018-09-22 03:00:00 19.9 2 Sur 3 Sur 0 -- -- 58
2018-09-22 02:00:00 21 0 Calma 4 Sur 0 -- -- 54
2018-09-22 01:00:00 21.4 3 Sur 7 Sur 0 -- -- 51
2018-09-22 00:00:00 22.5 2 Sudeste 10 Sudoeste 0 -- -- 53
2018-09-21 23:00:00 23.9 4 Sur 14 Sudoeste 0 -- -- 50
2018-09-21 22:00:00 24.7 9 Sur 19 Sur 0 -- -- 41
2018-09-21 21:00:00 26.2 18 Sur 28 Sur 0 -- -- 38
2018-09-21 20:00:00 28.1 18 Sur 28 Sur 0 -- -- 37
2018-09-21 19:00:00 30.2 24 Sur 32 Sur 0 -- -- 36
2018-09-21 18:00:00 31.9 22 Sur 32 Sudeste 0 -- -- 35
2018-09-21 17:00:00 32.8 5 Oeste 16 Sudoeste 0 -- -- 29
2018-09-21 16:00:00 32.7 6 Sur 19 Noroeste 0 -- -- 30
2018-09-21 15:00:00 32 6 Norte 16 Oeste 0 -- -- 31
2018-09-21 14:00:00 30.7 5 Sudeste 13 Norte 0 -- -- 40
2018-09-21 13:00:00 29 4 Este 9 Nordeste 0 -- -- 44
2018-09-21 12:00:00 25.1 5 Sudoeste 8 Sudoeste 0 -- -- 61
2018-09-21 11:00:00 22.2 4 Sudoeste 7 Sudoeste 0 -- -- 73
2018-09-21 10:00:00 19.5 4 Sudoeste 6 Sudoeste 0 -- -- 82
2018-09-21 09:00:00 17 0 Calma 4 Oeste 0 -- -- 91
2018-09-21 08:00:00 16.5 3 Sudoeste 6 Sudoeste 0 -- -- 88
2018-09-21 07:00:00 17.2 5 Este 6 Este 0 -- -- 89
2018-09-21 06:00:00 17.3 4 Nordeste 10 Norte 0 -- -- 87
2018-09-21 05:00:00 18.4 0 Calma 3 Noroeste 0 -- -- 84
2018-09-21 04:00:00 18.8 2 Oeste 4 Norte 0 -- -- 83
2018-09-21 03:00:00 19.2 0 Calma 6 Sudoeste 0 -- -- 82
2018-09-21 02:00:00 19.9 3 Sur 9 Sudoeste 0 -- -- 80
2018-09-21 01:00:00 20.7 3 Sudoeste 8 Sudoeste 0 -- -- 75
2018-09-21 00:00:00 21.2 4 Sudoeste 10 Sur 0 -- -- 74
2018-09-20 23:00:00 21.9 9 Sur 17 Sur 0 -- -- 72
2018-09-20 22:00:00 22.6 9 Sur 15 Sudoeste 0 -- -- 67
2018-09-20 21:00:00 24.1 12 Sur 24 Sur 0 -- -- 58
2018-09-20 20:00:00 25.8 19 Sur 33 Sur 0 -- -- 54
2018-09-20 19:00:00 27.9 23 Sur 33 Sur 0 -- -- 46
2018-09-20 18:00:00 29.4 22 Sur 32 Sur 0 -- -- 44
2018-09-20 17:00:00 29.9 23 Sur 35 Sur 0 -- -- 43
2018-09-20 16:00:00 29.8 23 Sur 37 Sur 0 -- -- 46
2018-09-20 15:00:00 29.3 24 Sur 35 Sur 0 -- -- 50
2018-09-20 14:00:00 28.5 21 Sur 36 Sur 0 -- -- 53
2018-09-20 13:00:00 27.6 24 Sur 35 Sur 0 -- -- 57
2018-09-20 12:00:00 26.8 22 Sur 32 Sudeste 0 -- -- 62
2018-09-20 11:00:00 25 15 Sur 23 Sudeste 0 -- -- 69
2018-09-20 10:00:00 22.7 12 Sur 17 Sur 0 -- -- 80
2018-09-20 09:00:00 19.4 2 Sur 9 Sudoeste 0 -- -- 91
2018-09-20 08:00:00 18.5 7 Sur 12 Sur 0 -- -- 90
2018-09-20 07:00:00 18.8 0 Calma 10 Sudeste 0 -- -- 88
2018-09-20 06:00:00 19.3 4 Sur 11 Sur 0 -- -- 86
2018-09-20 05:00:00 19.8 8 Sudoeste 12 Sudoeste 0 -- -- 81
2018-09-20 04:00:00 20.4 10 Sudoeste 22 Sur 0 -- -- 78
2018-09-20 03:00:00 20.8 10 Sudoeste 24 Sur 0 -- -- 78
2018-09-20 02:00:00 20.9 7 Sur 16 Sudoeste 0 -- -- 78
2018-09-20 01:00:00 21.4 10 Sur 26 Sur 0 -- -- 77
2018-09-20 00:00:00 21.9 9 Sur 14 Sudoeste 0 -- -- 76
2018-09-19 23:00:00 22.3 5 Sur 13 Sudoeste 0 -- -- 75
2018-09-19 22:00:00 23.1 8 Sudeste 14 Sudoeste 0 -- -- 72
2018-09-19 21:00:00 24.6 10 Sur 23 Sur 0 -- -- 66
2018-09-19 20:00:00 26.3 19 Sur 28 Sur 0 -- -- 59
2018-09-19 19:00:00 29.3 20 Sur 28 Sur 0 -- -- 48
2018-09-19 18:00:00 31.3 16 Sur 26 Sur 0 -- -- 37
2018-09-19 17:00:00 32.1 15 Sur 24 Sur 0 -- -- 35
2018-09-19 16:00:00 31.8 6 Sur 13 Sur 0 -- -- 41
2018-09-19 15:00:00 30.5 5 Oeste 13 Sudoeste 0 -- -- 37
2018-09-19 14:00:00 29.7 7 Sur 11 Sudeste 0 -- -- 52
2018-09-19 13:00:00 28.2 4 Sur 10 Sur 0 -- -- 57
2018-09-19 12:00:00 26.2 3 Sur 7 Sudoeste 0 -- -- 67
2018-09-19 11:00:00 23.4 3 Sudoeste 7 Sur 0 -- -- 81
2018-09-19 10:00:00 21 0 Calma 2 Norte 0 -- -- 89
2018-09-19 09:00:00 18.9 0 Calma -- -- 0 -- -- 94
2018-09-19 08:00:00 18.4 0 Calma -- -- 0 -- -- 93
2018-09-19 07:00:00 18.7 0 Calma -- -- 0 -- -- 93
2018-09-19 06:00:00 18.9 0 Calma -- -- 0 -- -- 92
2018-09-19 05:00:00 19.2 0 Calma 4 Sudoeste 0 -- -- 90
2018-09-19 04:00:00 20 0 Calma 9 Sur 0 -- -- 90
2018-09-19 03:00:00 20.2 8 Sur 9 Sur 0 -- -- 89
2018-09-19 02:00:00 20.8 4 Sur 10 Sur 0 -- -- 87
2018-09-19 01:00:00 21.2 6 Sur 10 Sudoeste 0 -- -- 86
2018-09-19 00:00:00 21.8 7 Sur 11 Sudeste 0 -- -- 85
2018-09-18 23:00:00 23 0 Calma 14 Nordeste 0 -- -- 79
2018-09-18 22:00:00 23.3 6 Sur 10 Sudoeste 0 -- -- 79
2018-09-18 21:00:00 23.6 6 Sur 19 Sur 0 -- -- 79
2018-09-18 20:00:00 24.1 14 Sur 22 Sudeste 0 -- -- 80
2018-09-18 19:00:00 23 18 Sudeste 40 Sudeste 3 -- -- 78
2018-09-18 18:00:00 29.5 5 Oeste 19 Oeste 0 -- -- 47
2018-09-18 17:00:00 31.8 6 Oeste 16 Sudoeste 0 -- -- 38
2018-09-18 16:00:00 31.4 5 Sudoeste 17 Noroeste 0 -- -- 39
2018-09-18 15:00:00 30 3 Este 13 Noroeste 0 -- -- 48
2018-09-18 14:00:00 29.8 4 Sudoeste 12 Noroeste 0 -- -- 49
2018-09-18 13:00:00 27.4 6 Sudoeste 15 Nordeste 0 -- -- 60
2018-09-18 12:00:00 25.7 5 Sudoeste 9 Sudoeste 0 -- -- 67
2018-09-18 11:00:00 23.2 3 Sur 6 Oeste 0 -- -- 79
2018-09-18 10:00:00 20.4 3 Oeste 4 Noroeste 0 -- -- 91
2018-09-18 09:00:00 18.7 0 Calma 2 Sur 0 -- -- 94
2018-09-18 08:00:00 18.4 2 Sur 4 Norte 0 -- -- 93
2018-09-18 07:00:00 18.9 2 Sudeste 7 Sudeste 0 -- -- 93
2018-09-18 06:00:00 19.3 0 Calma 5 Norte 0 -- -- 92
2018-09-18 05:00:00 19.6 3 Este 8 Sudeste 0 -- -- 91
2018-09-18 04:00:00 20.3 4 Oeste 7 Noroeste 0 -- -- 89
2018-09-18 03:00:00 20.8 5 Sudeste 7 Sudeste 0 -- -- 89
2018-09-18 02:00:00 21.4 6 Nordeste 11 Nordeste 0 -- -- 88
2018-09-18 01:00:00 21.8 6 Sur 13 Sudoeste 0 -- -- 85
2018-09-18 00:00:00 22.3 6 Sur 20 Sudoeste 0 -- -- 83
2018-09-17 23:00:00 22.5 10 Sudoeste 16 Sur 0 -- -- 83
2018-09-17 22:00:00 22.8 10 Sur 22 Sur 0 -- -- 80
2018-09-17 21:00:00 23.5 16 Sur 26 Sur 0 -- -- 77
2018-09-17 20:00:00 24.4 18 Sur 32 Sur 0 -- -- 72
2018-09-17 19:00:00 26.4 23 Sur 36 Sudeste 0 -- -- 62
2018-09-17 18:00:00 27.6 24 Sur 38 Sur 0 -- -- 58
2018-09-17 17:00:00 28.4 26 Sur 38 Sur 0 -- -- 56
2018-09-17 16:00:00 28.8 23 Sur 39 Sur 0 -- -- 55
2018-09-17 15:00:00 28.7 22 Sur 41 Sur 0 -- -- 57
2018-09-17 14:00:00 28.2 24 Sur 39 Sur 0 -- -- 56
2018-09-17 13:00:00 25.6 17 Sudeste 33 Sur 0 -- -- 66
2018-09-17 12:00:00 23.9 18 Sudeste 32 Sur 0 -- -- 73
2018-09-17 11:00:00 22.2 15 Sur 30 Sur 0 -- -- 81
2018-09-17 10:00:00 21.5 9 Sur 13 Sur 0 -- -- 85
2018-09-17 09:00:00 19.6 7 Sudoeste 9 Sudoeste 0 -- -- 90
2018-09-17 08:00:00 19.2 6 Nordeste 12 Nordeste 0 -- -- 91
2018-09-17 07:00:00 20.1 6 Sur 24 Sur 0 -- -- 88
2018-09-17 06:00:00 20.8 21 Sudeste 29 Sudeste 0 -- -- 88
2018-09-17 05:00:00 20.7 16 Sudeste 36 Sur 0 -- -- 88
2018-09-17 04:00:00 20.9 25 Sur 36 Sur 0 -- -- 84
2018-09-17 03:00:00 21.2 12 Sur 28 Sur 0 -- -- 82
2018-09-17 02:00:00 21 15 Sur 29 Sur 0 -- -- 83
2018-09-17 01:00:00 21.2 20 Sur 30 Sur 0 -- -- 80
2018-09-17 00:00:00 21.2 12 Sudoeste 21 Sur 0 -- -- 80
2018-09-16 23:00:00 21.7 15 Sur 28 Sur 0 -- -- 77
2018-09-16 22:00:00 22.5 18 Sur 29 Sur 0 -- -- 71
2018-09-16 21:00:00 22.9 15 Sur 27 Sur 0 -- -- 70
2018-09-16 20:00:00 24.1 21 Sur 34 Sur 0 -- -- 68
2018-09-16 19:00:00 26 24 Sur 36 Sur 0 -- -- 62
2018-09-16 18:00:00 27.8 23 Sur 33 Sur 0 -- -- 55
2018-09-16 17:00:00 29.5 16 Sur 27 Sur 0 -- -- 49
2018-09-16 16:00:00 29.5 7 Este 18 Este 0 -- -- 44
2018-09-16 15:00:00 28.6 6 Este 18 Sudeste 0 -- -- 49
2018-09-16 14:00:00 27.2 7 Este 18 Este 0 -- -- 53
2018-09-16 13:00:00 26.4 2 Este 14 Sudeste 0 -- -- 56
2018-09-16 12:00:00 24.8 4 Este 13 Sudeste 0 -- -- 63
2018-09-16 11:00:00 22.8 2 Sudoeste 10 Sudeste 0 -- -- 78
2018-09-16 10:00:00 19.1 0 Calma 6 Sur 0 -- -- 94
2018-09-16 09:00:00 17.2 5 Sur 9 Nordeste 0 -- -- 94
2018-09-16 08:00:00 16.8 2 Nordeste 8 Norte 0 -- -- 94
2018-09-16 07:00:00 17.4 0 Calma 11 Este 0 -- -- 93
2018-09-16 06:00:00 17.7 4 Nordeste 8 Nordeste 0 -- -- 93
2018-09-16 05:00:00 18.9 6 Sudeste 14 Sur 0 -- -- 92
2018-09-16 04:00:00 18.8 6 Sudeste 12 Sudeste 0 -- -- 90
2018-09-16 03:00:00 18.8 6 Sudeste 12 Sur 0 -- -- 90
2018-09-16 02:00:00 19 0 Calma 9 Sudeste 0 -- -- 91
2018-09-16 01:00:00 19.3 6 Sudeste 12 Sudeste 0 -- -- 92
2018-09-16 00:00:00 19.4 11 Sur 19 Sur 0 -- -- 91
2018-09-15 23:00:00 19.8 8 Sur 14 Sur 0 -- -- 91
2018-09-15 22:00:00 19.9 10 Sur 15 Sudoeste 0 -- -- 90
2018-09-15 21:00:00 20.6 5 Sur 9 Sur 0 -- -- 88
2018-09-15 20:00:00 20.8 2 Noroeste 4 Noroeste 0 -- -- 89
2018-09-15 19:00:00 21.1 0 Calma 5 Nordeste 0 -- -- 86
2018-09-15 18:00:00 20.6 2 Este 13 Sudeste 0 -- -- 90
2018-09-15 17:00:00 20.2 5 Sudeste 19 Sudeste 2.2 -- -- 91
2018-09-15 16:00:00 20.4 10 Sur 22 Sudeste 13.8 -- -- 87
2018-09-15 15:00:00 23 18 Sudeste 24 Sudeste 0.8 -- -- 77
2018-09-15 14:00:00 25.9 6 Oeste 18 Sudoeste 0 -- -- 58
2018-09-15 13:00:00 26.1 9 Sudoeste 17 Sur 0 -- -- 62
2018-09-15 12:00:00 23.8 4 Sudoeste 9 Sur 0 -- -- 69
2018-09-15 11:00:00 21.1 0 Calma -- -- 0 -- -- 79
2018-09-15 10:00:00 17.8 0 Calma 6 Noroeste 0 -- -- 93
2018-09-15 09:00:00 16.6 2 Sudoeste 7 Sur 0 -- -- 95
2018-09-15 08:00:00 16.1 3 Sudoeste 5 Sudoeste 0 -- -- 94
2018-09-15 07:00:00 16 4 Sur 8 Sudeste 0 -- -- 94
2018-09-15 06:00:00 16.6 0 Calma 8 Norte 0 -- -- 94
2018-09-15 05:00:00 16.9 4 Norte 7 Oeste 0 -- -- 92
2018-09-15 04:00:00 17 3 Sudeste 11 Este 0 -- -- 93
2018-09-15 03:00:00 17.7 5 Este 9 Nordeste 0 -- -- 92
2018-09-15 02:00:00 17.9 3 Oeste 8 Sudeste 0 -- -- 92
2018-09-15 01:00:00 18.1 8 Sudeste 13 Sur 0 -- -- 92
2018-09-15 00:00:00 18.6 10 Sur 15 Sur 0 -- -- 90
2018-09-14 23:00:00 18.8 3 Nordeste 20 Noroeste 0.4 -- -- 91
2018-09-14 22:00:00 18.9 8 Este 14 Norte 0 -- -- 91
2018-09-14 21:00:00 18.9 5 Sur 13 Sudeste 0 -- -- 89
2018-09-14 20:00:00 18.8 7 Sur 12 Sudeste 0 -- -- 89
2018-09-14 19:00:00 19 6 Sudoeste 13 Sudoeste 1 -- -- 83
2018-09-14 18:00:00 19.2 9 Sudoeste 45 Sudeste 1.2 -- -- 83
2018-09-14 17:00:00 24.9 28 Sudeste 42 Sudeste 0 -- -- 50
2018-09-14 16:00:00 26.3 19 Sur 31 Sur 0 -- -- 60
2018-09-14 15:00:00 27.3 14 Sur 27 Sur 0 -- -- 58
2018-09-14 14:00:00 25.1 19 Sur 29 Sur 0 -- -- 65
2018-09-14 13:00:00 24.4 17 Sur 31 Sur 0 -- -- 67
2018-09-14 12:00:00 23.6 17 Sur 27 Sur 0 -- -- 67
2018-09-14 11:00:00 22.3 9 Sur 14 Sudoeste 0 -- -- 75
2018-09-14 10:00:00 20 0 Calma -- -- -- -- -- 81
2018-09-14 09:00:00 18.3 0 Calma 5 Sudeste 0 -- -- 85
2018-09-14 08:00:00 18 5 Sudeste 6 Sudeste 0 -- -- 85
2018-09-14 07:00:00 18.4 4 Sudoeste 6 Sudoeste 0 -- -- 82
2018-09-14 06:00:00 18.7 5 Sudoeste 8 Sur 0 -- -- 83
2018-09-14 05:00:00 19.9 0 Calma 5 Nordeste 0 -- -- 82
2018-09-14 04:00:00 20.1 3 Nordeste 7 Norte 0 -- -- 81
2018-09-14 03:00:00 20.2 6 Norte 9 Norte 0 -- -- 81
2018-09-14 02:00:00 19.8 0 Calma 10 Norte 0 -- -- 70
2018-09-14 01:00:00 21.3 0 Calma 4 Este 0 -- -- 68
2018-09-14 00:00:00 22.3 3 Sur 9 Sudoeste 0 -- -- 66
2018-09-13 23:00:00 23.1 3 Sudoeste 10 Sudoeste 0 -- -- 62
2018-09-13 22:00:00 23.4 7 Sur 12 Sur 0 -- -- 61
2018-09-13 21:00:00 25 5 Sur 15 Sudoeste 0 -- -- 57
2018-09-13 20:00:00 25.8 10 Sudoeste 17 Sur 0 -- -- 55
2018-09-13 19:00:00 26.4 6 Sur 27 Sudoeste 0 -- -- 56
2018-09-13 18:00:00 29 17 Sudoeste 26 Oeste 0 -- -- 42
2018-09-13 17:00:00 29.9 12 Sudoeste 19 Nordeste 0 -- -- 43
2018-09-13 16:00:00 31 10 Nordeste 21 Norte 0 -- -- 40
2018-09-13 15:00:00 31.2 12 Nordeste 25 Noroeste 0 -- -- 41
2018-09-13 14:00:00 30.6 8 Norte 17 Noroeste 0 -- -- 40
2018-09-13 13:00:00 29.4 12 Norte 20 Norte 0 -- -- 39
2018-09-13 12:00:00 27.7 5 Nordeste 12 Norte 0 -- -- 46
2018-09-13 11:00:00 25.5 2 Sur 6 Este 0 -- -- 62
2018-09-13 10:00:00 22.3 3 Nordeste 7 Nordeste 0 -- -- 74
2018-09-13 09:00:00 18.7 2 Nordeste 5 Sur 0 -- -- 87
2018-09-13 08:00:00 17.6 5 Sur 6 Sur 0 -- -- 88
2018-09-13 07:00:00 18 0 Calma 5 Noroeste 0 -- -- 86
2018-09-13 06:00:00 18.8 0 Calma 6 Norte 0 -- -- 84
2018-09-13 05:00:00 19.2 2 Nordeste 6 Nordeste 0 -- -- 84
2018-09-13 04:00:00 19.9 3 Nordeste 6 Norte 0 -- -- 85
2018-09-13 03:00:00 20.6 3 Sudoeste 5 Sudoeste 0 -- -- 83
2018-09-13 02:00:00 21 3 Norte 7 Sur 0 -- -- 80
2018-09-13 01:00:00 22 6 Sur -- -- 0 -- -- 79
2018-09-13 00:00:00 23 4 Sur 13 Sudoeste 0 -- -- 75
2018-09-12 23:00:00 23.7 4 Sudoeste 14 Sur 0 -- -- 73
2018-09-12 22:00:00 24.6 10 Sudoeste 21 Sur 0 -- -- 69
2018-09-12 21:00:00 26 16 Sur 28 Sur 0 -- -- 64
2018-09-12 20:00:00 28.3 17 Sur 24 Sur 0 -- -- 54
2018-09-12 19:00:00 30 12 Sur 18 Sur 0 -- -- 47
2018-09-12 18:00:00 30.1 6 Sudeste 18 Sudoeste 0 -- -- 46
2018-09-12 17:00:00 29.9 9 Sudeste 21 Sudeste 0 -- -- 45
2018-09-12 16:00:00 29.7 12 Sur 27 Sudeste 0 -- -- 47
2018-09-12 15:00:00 28.8 18 Sur 32 Sur 0 -- -- 51
2018-09-12 14:00:00 28.7 22 Sur 35 Sur 0 -- -- 53
2018-09-12 13:00:00 27.2 20 Sur 33 Sur 0 -- -- 60
2018-09-12 12:00:00 26.3 13 Sur 21 Sur 0 -- -- 62
2018-09-12 11:00:00 24.7 18 Sur 30 Sur 0 -- -- 71
2018-09-12 10:00:00 24.3 16 Sudeste 26 Sudeste 0 -- -- 73
2018-09-12 09:00:00 22.1 10 Sur 19 Sudeste 0 -- -- 82
2018-09-12 08:00:00 20.8 8 Sudeste 16 Sur 0 -- -- 86
2018-09-12 07:00:00 21.3 12 Sur 21 Sur 0 -- -- 85
2018-09-12 06:00:00 21.7 14 Sur 23 Sudeste 0 -- -- 84
2018-09-12 05:00:00 22 14 Sur 25 Sudeste 0 -- -- 82
2018-09-12 04:00:00 22.1 16 Sur 27 Sur 0 -- -- 83
2018-09-12 03:00:00 22 16 Sur 41 Sur 0 -- -- 83
2018-09-12 02:00:00 22.2 30 Sur 42 Sur 0 -- -- 81
2018-09-12 01:00:00 22.4 20 Sur 31 Sur 0 -- -- 79
2018-09-12 00:00:00 22.7 19 Sur 37 Sur 0 -- -- 78
2018-09-11 23:00:00 23.1 23 Sudeste 35 Sur 0 -- -- 75
2018-09-11 22:00:00 23.4 22 Sur 33 Sur 0 -- -- 70
2018-09-11 21:00:00 24.1 21 Sur 33 Sur 0 -- -- 66
2018-09-11 20:00:00 25.3 22 Sur 42 Sur 0 -- -- 60
2018-09-11 19:00:00 27.4 26 Sur 42 Sur 0 -- -- 54
2018-09-11 18:00:00 28.5 26 Sur 46 Sur 0 -- -- 50
2018-09-11 17:00:00 29.4 29 Sur 43 Sur 0 -- -- 47
2018-09-11 16:00:00 30.4 17 Sur 30 Sur 0 -- -- 43
2018-09-11 15:00:00 30.6 11 Sur 36 Sur 0 -- -- 44
2018-09-11 14:00:00 28.3 16 Sur 34 Sudeste 0 -- -- 50
2018-09-11 13:00:00 27.8 17 Sudeste 25 Este 0 -- -- 49
2018-09-11 12:00:00 26.3 7 Sur 17 Sur 0 -- -- 56
2018-09-11 11:00:00 24.9 8 Sur 14 Sur 0 -- -- 63
2018-09-11 10:00:00 21.2 3 Sur 5 Sur 0 -- -- 82
2018-09-11 09:00:00 17.7 5 Norte 10 Norte 0 -- -- 89
2018-09-11 08:00:00 18.3 3 Sudeste 5 Este 0 -- -- 88
2018-09-11 07:00:00 18.8 2 Este 7 Sudeste 0 -- -- 86
2018-09-11 06:00:00 19.6 6 Sudeste 13 Sudeste 0 -- -- 87
2018-09-11 05:00:00 20.4 4 Sudeste 17 Sudeste 0 -- -- 86
2018-09-11 04:00:00 20.7 10 Sur 17 Sur 0 -- -- 85
2018-09-11 03:00:00 21.3 14 Sur 28 Sur 0 -- -- 82
2018-09-11 02:00:00 21.3 17 Sur 26 Sur 0 -- -- 81
2018-09-11 01:00:00 21.4 17 Sur 34 Sur 0 -- -- 78
2018-09-11 00:00:00 21.7 22 Sur 32 Sur 0 -- -- 73
2018-09-10 23:00:00 22 19 Sur 32 Sur 0 -- -- 74
2018-09-10 22:00:00 22.4 22 Sur 33 Sur 0 -- -- 74
2018-09-10 21:00:00 22.9 23 Sur 39 Sur 0 -- -- 70
2018-09-10 20:00:00 24.7 28 Sur 40 Sur 0 -- -- 58
2018-09-10 19:00:00 27.3 22 Sur 37 Sur 0 -- -- 49
2018-09-10 18:00:00 28.8 23 Sur 32 Sudeste 0 -- -- 45
2018-09-10 17:00:00 29.9 16 Sur 28 Sur 0 -- -- 42
2018-09-10 16:00:00 30.2 13 Sur 25 Sur 0 -- -- 42
2018-09-10 15:00:00 29.8 11 Nordeste 23 Este 0 -- -- 39
2018-09-10 14:00:00 28.8 8 Este 24 Nordeste 0 -- -- 39
2018-09-10 13:00:00 27.4 10 Norte 20 Nordeste 0 -- -- 46
2018-09-10 12:00:00 25.8 8 Norte 17 Este 0 -- -- 48
2018-09-10 11:00:00 22.6 5 Nordeste 10 Nordeste 0 -- -- 65
2018-09-10 10:00:00 19.3 2 Este 7 Este 0 -- -- 80
2018-09-10 09:00:00 15.3 4 Nordeste 8 Norte 0 -- -- 92
2018-09-10 08:00:00 14.3 5 Sur 12 Sudeste 0 -- -- 92
2018-09-10 07:00:00 14.8 0 Calma 6 Oeste 0 -- -- 91
2018-09-10 06:00:00 15 4 Sudoeste 10 Sur 0 -- -- 91
2018-09-10 05:00:00 15.4 3 Sudeste 9 Sudeste 0 -- -- 90
2018-09-10 04:00:00 15.6 4 Norte 6 Norte 0 -- -- 89
2018-09-10 03:00:00 16.2 3 Sur 5 Nordeste 0 -- -- 86
2018-09-10 02:00:00 16.9 4 Norte 9 Sur 0 -- -- 86
2018-09-10 01:00:00 17.9 4 Sudoeste 8 Sur 0 -- -- 82
2018-09-10 00:00:00 18.8 3 Nordeste 8 Nordeste 0 -- -- 79
2018-09-09 23:00:00 19.9 0 Calma 8 Oeste 0 -- -- 73
2018-09-09 22:00:00 20.8 3 Sudoeste 18 Sur 0 -- -- 68
2018-09-09 21:00:00 21.3 13 Sur 22 Sur 0 -- -- 66
2018-09-09 20:00:00 21.8 15 Sur 33 Sur 0 -- -- 66
2018-09-09 19:00:00 22.7 22 Sur 35 Sur 0 -- -- 63
2018-09-09 18:00:00 23.9 21 Sur 35 Sur 0 -- -- 62
2018-09-09 17:00:00 25.1 18 Sudeste 26 Sur 0 -- -- 59
2018-09-09 16:00:00 25.5 23 Sur 38 Sudeste 0 -- -- 58
2018-09-09 15:00:00 28.7 9 Sudeste 15 Norte 0 -- -- 42
2018-09-09 14:00:00 26.6 12 Norte 23 Nordeste 0 -- -- 49
2018-09-09 13:00:00 26 9 Nordeste 18 Nordeste 0 -- -- 52
2018-09-09 12:00:00 24.2 8 Nordeste 13 Nordeste 0 -- -- 65
2018-09-09 11:00:00 21.8 2 Norte 7 Norte 0 -- -- 78
2018-09-09 10:00:00 18.7 4 Noroeste 6 Noroeste 0 -- -- 91
2018-09-09 09:00:00 16.7 0 Calma 7 Sur 0 -- -- 95
2018-09-09 08:00:00 16 0 Calma -- -- 0 -- -- 94
2018-09-09 07:00:00 16.4 0 Calma 6 Norte 0 -- -- 93
2018-09-09 06:00:00 16.5 5 Nordeste 9 Norte 0 -- -- 94
2018-09-09 05:00:00 17 3 Nordeste 10 Nordeste 0 -- -- 94
2018-09-09 04:00:00 17.1 5 Nordeste 8 Norte 0 -- -- 94
2018-09-09 03:00:00 17.5 3 Sudeste 5 Sur 0 -- -- 93
2018-09-09 02:00:00 17.4 3 Oeste 5 Noroeste 0 -- -- 93
2018-09-09 01:00:00 17.9 2 Este 6 Noroeste 0 -- -- 92
2018-09-09 00:00:00 18.5 3 Noroeste 5 Noroeste 0 -- -- 92
2018-09-08 23:00:00 19 3 Sudeste 8 Sudeste 0 -- -- 92
2018-09-08 22:00:00 19.3 4 Nordeste 9 Norte 0 -- -- 91
2018-09-08 21:00:00 19.6 8 Norte 12 Norte 0 -- -- 90
2018-09-08 20:00:00 19.7 8 Nordeste 18 Nordeste 0 -- -- 88
2018-09-08 19:00:00 20.1 14 Nordeste 22 Norte 0 -- -- 86
2018-09-08 18:00:00 22.9 10 Norte 18 Noroeste 0 -- -- 70
2018-09-08 17:00:00 22.3 6 Norte 13 Noroeste 0 -- -- 73
2018-09-08 16:00:00 21.6 6 Oeste 14 Noroeste 0 -- -- 76
2018-09-08 15:00:00 20.9 10 Norte 16 Norte 0.2 -- -- 74
2018-09-08 14:00:00 21.8 10 Norte 18 Noroeste 0 -- -- 63
2018-09-08 13:00:00 23 5 Oeste 14 Oeste 0 -- -- 60
2018-09-08 12:00:00 22.8 9 Oeste 15 Oeste 0 -- -- 59
2018-09-08 11:00:00 20.3 2 Sudeste 8 Norte 0 -- -- 60
2018-09-08 10:00:00 19.1 0 Calma 11 Norte 0 -- -- 64
2018-09-08 09:00:00 18.3 10 Norte 17 Nordeste 0 -- -- 67
2018-09-08 08:00:00 17.2 7 Norte 10 Norte 0 -- -- 72
2018-09-08 07:00:00 17.3 6 Nordeste 14 Este 0 -- -- 71
2018-09-08 06:00:00 17.1 4 Nordeste 15 Nordeste 0 -- -- 73
2018-09-08 05:00:00 18.2 9 Norte 16 Norte 0 -- -- 66
2018-09-08 04:00:00 19.6 3 Sudeste 15 Sudoeste 0 -- -- 58
2018-09-08 03:00:00 20.5 6 Sudoeste 21 Sur 0 -- -- 55
2018-09-08 02:00:00 21 16 Sur 28 Sur 0 -- -- 53
2018-09-08 01:00:00 21.8 19 Sur 36 Sur 0 -- -- 49
2018-09-08 00:00:00 22.3 23 Sur 44 Sur 0 -- -- 50
2018-09-07 23:00:00 23 18 Sur 30 Sur 0 -- -- 51
2018-09-07 22:00:00 23.7 14 Sur 19 Sur 0 -- -- 48
2018-09-07 21:00:00 25.3 11 Sur 27 Sur 0 -- -- 44
2018-09-07 20:00:00 27.2 18 Sur 31 Sur 0 -- -- 37
2018-09-07 19:00:00 28.9 22 Sur 36 Sur 0 -- -- 32
2018-09-07 18:00:00 30 20 Sur 35 Sur 0 -- -- 30
2018-09-07 17:00:00 30.2 19 Sur 43 Sudeste 0 -- -- 29
2018-09-07 16:00:00 29.9 25 Sur 39 Sur 0 -- -- 31
2018-09-07 15:00:00 29.5 24 Sur 37 Sur 0 -- -- 31
2018-09-07 14:00:00 29.1 23 Sur 38 Sur 0 -- -- 31
2018-09-07 13:00:00 28.3 21 Sudeste 32 Sudeste 0 -- -- 39
2018-09-07 12:00:00 23.7 5 Oeste 12 Oeste 0 -- -- 61
2018-09-07 11:00:00 21.6 8 Sudoeste 12 Sudeste 0 -- -- 70
2018-09-07 10:00:00 18.9 5 Nordeste 10 Este 0 -- -- 83
2018-09-07 09:00:00 17.1 5 Este 13 Nordeste 0 -- -- 89
2018-09-07 08:00:00 17.1 9 Nordeste 15 Nordeste 0 -- -- 90
2018-09-07 07:00:00 17.2 8 Norte 13 Norte 0 -- -- 90
2018-09-07 06:00:00 17 6 Norte 13 Norte 0 -- -- 90
2018-09-07 05:00:00 17.1 10 Norte 17 Norte 0 -- -- 87
2018-09-07 04:00:00 17.7 10 Norte 19 Norte 0 -- -- 83
2018-09-07 03:00:00 18.6 12 Norte 19 Norte 0 -- -- 79
2018-09-07 02:00:00 19.9 14 Norte 19 Norte 0 -- -- 70
2018-09-07 01:00:00 21 6 Norte 13 Nordeste 0 -- -- 65
2018-09-07 00:00:00 22.3 6 Oeste 13 Sudoeste 0 -- -- 61
2018-09-06 23:00:00 22.9 6 Noroeste 20 Oeste 0 -- -- 58
2018-09-06 22:00:00 24.1 13 Oeste 25 Noroeste 0 -- -- 55
2018-09-06 21:00:00 25.6 10 Noroeste 17 Noroeste 0 -- -- 45
2018-09-06 20:00:00 27 12 Noroeste 19 Noroeste 0 -- -- 39
2018-09-06 19:00:00 28.1 9 Noroeste 23 Noroeste 0 -- -- 36
2018-09-06 18:00:00 28.4 12 Noroeste 24 Noroeste 0 -- -- 35
2018-09-06 17:00:00 28.5 14 Noroeste 24 Noroeste 0 -- -- 35
2018-09-06 16:00:00 28.8 10 Noroeste 23 Noroeste 0 -- -- 38
2018-09-06 15:00:00 27.7 12 Noroeste 26 Noroeste 0 -- -- 41
2018-09-06 14:00:00 27 9 Noroeste 24 Noroeste 0 -- -- 39
2018-09-06 13:00:00 25.6 9 Noroeste 18 Noroeste 0 -- -- 48
2018-09-06 12:00:00 23.7 5 Noroeste 11 Sudoeste 0 -- -- 58
2018-09-06 11:00:00 21.3 5 Sudoeste 10 Oeste 0 -- -- 65
2018-09-06 10:00:00 18.3 3 Sudoeste 5 Sudoeste 0 -- -- 77
2018-09-06 09:00:00 15.7 0 Calma 3 Norte 0 -- -- 87
2018-09-06 08:00:00 14.1 0 Calma 2 Sur 0 -- -- 87
2018-09-06 07:00:00 14.6 0 Calma 4 Oeste 0 -- -- 87
2018-09-06 06:00:00 15 3 Oeste 5 Sudeste 0 -- -- 85
2018-09-06 05:00:00 16 5 Sudeste 8 Sudeste 0 -- -- 86
2018-09-06 04:00:00 16.4 0 Calma 6 Norte 0 -- -- 84
2018-09-06 03:00:00 17 5 Norte 15 Noroeste 0 -- -- 81
2018-09-06 02:00:00 17.9 10 Noroeste 14 Noroeste 0 -- -- 77
2018-09-06 01:00:00 19.1 6 Noroeste 14 Oeste 0 -- -- 70
2018-09-06 00:00:00 20.8 11 Oeste 20 Noroeste 0 -- -- 66
2018-09-05 23:00:00 21.8 9 Noroeste 19 Noroeste 0 -- -- 62
2018-09-05 22:00:00 22.5 13 Noroeste 28 Oeste 0 -- -- 59
2018-09-05 21:00:00 24.1 21 Noroeste 32 Oeste 0 -- -- 54
2018-09-05 20:00:00 25.8 20 Noroeste 30 Noroeste 0 -- -- 49
2018-09-05 19:00:00 26.8 18 Noroeste 27 Noroeste 0 -- -- 45
2018-09-05 18:00:00 27.6 14 Noroeste 25 Noroeste 0 -- -- 43
2018-09-05 17:00:00 28.2 8 Noroeste 26 Noroeste 0 -- -- 40
2018-09-05 16:00:00 28.1 6 Norte 22 Noroeste 0 -- -- 43
2018-09-05 15:00:00 26.8 10 Norte 26 Noroeste 0 -- -- 46
2018-09-05 14:00:00 25.8 10 Noroeste 26 Noroeste 0 -- -- 47
2018-09-05 13:00:00 25.1 6 Noroeste 17 Oeste 0 -- -- 51
2018-09-05 12:00:00 23.6 8 Noroeste 14 Oeste 0 -- -- 54
2018-09-05 11:00:00 22.2 5 Nordeste 13 Oeste 0 -- -- 60
2018-09-05 10:00:00 20.6 4 Sur 8 Sudeste 0 -- -- 68
2018-09-05 09:00:00 18.6 2 Oeste 4 Oeste 0 -- -- 77
2018-09-05 08:00:00 18.2 2 Noroeste 7 Noroeste 0 -- -- 79
2018-09-05 07:00:00 18.4 4 Noroeste 8 Oeste 0 -- -- 78
2018-09-05 06:00:00 17.9 0 Calma 0 Calma 0 -- -- 80
2018-09-05 05:00:00 17.2 0 Calma 6 Norte 0 -- -- 83
2018-09-05 04:00:00 16.4 5 Nordeste 9 Este 0 -- -- 84
2018-09-05 03:00:00 17.6 0 Calma 4 Norte 0 -- -- 80
2018-09-05 02:00:00 18 0 Calma 6 Noroeste 0 -- -- 76
2018-09-05 01:00:00 18.8 3 Noroeste 10 Noroeste 0 -- -- 73
2018-09-05 00:00:00 19.8 7 Noroeste 12 Noroeste 0 -- -- 68
2018-09-04 23:00:00 21.2 2 Norte 11 Oeste 0 -- -- 61
2018-09-04 22:00:00 22.5 7 Noroeste 28 Noroeste 0 -- -- 56
2018-09-04 21:00:00 24.2 14 Noroeste 26 Noroeste 0 -- -- 53
2018-09-04 20:00:00 26.1 15 Noroeste 29 Noroeste 0 -- -- 49
2018-09-04 19:00:00 27.8 21 Noroeste 31 Noroeste 0 -- -- 44
2018-09-04 18:00:00 28.7 16 Norte 32 Noroeste 0 -- -- 42
2018-09-04 17:00:00 29.1 15 Noroeste 34 Noroeste 0 -- -- 40
2018-09-04 16:00:00 29.2 12 Noroeste 26 Noroeste 0 -- -- 41
2018-09-04 15:00:00 28.7 10 Oeste 27 Oeste 0 -- -- 41
2018-09-04 14:00:00 28.1 8 Sudoeste 15 Noroeste 0 -- -- 39
2018-09-04 13:00:00 25.6 6 Oeste 15 Noroeste 0 -- -- 49
2018-09-04 12:00:00 23.8 3 Norte 10 Oeste 0 -- -- 58
2018-09-04 11:00:00 21.8 3 Noroeste 12 Este 0 -- -- 66
2018-09-04 10:00:00 20 4 Norte 9 Nordeste 0 -- -- 73
2018-09-04 09:00:00 18.2 9 Este 13 Este 0 -- -- 80
2018-09-04 08:00:00 17.9 3 Nordeste 5 Nordeste 0 -- -- 84
2018-09-04 07:00:00 17.4 3 Nordeste 8 Nordeste 0 -- -- 87
2018-09-04 06:00:00 15.9 6 Nordeste 10 Noroeste 0 -- -- 89
2018-09-04 05:00:00 16.3 7 Norte 14 Noroeste 0 -- -- 87
2018-09-04 04:00:00 16.2 9 Nordeste 11 Norte 0 -- -- 86
2018-09-04 03:00:00 17.1 3 Nordeste 6 Sudeste 0 -- -- 83
2018-09-04 02:00:00 17.7 3 Norte 9 Norte 0 -- -- 81
2018-09-04 01:00:00 18.4 6 Norte 14 Norte 0 -- -- 78
2018-09-04 00:00:00 19.2 9 Norte 18 Norte 0 -- -- 74
2018-09-03 23:00:00 20.6 9 Norte 18 Norte 0 -- -- 68
2018-09-03 22:00:00 22 10 Norte 16 Noroeste 0 -- -- 63
2018-09-03 21:00:00 24.2 9 Noroeste 24 Oeste 0 -- -- 55
2018-09-03 20:00:00 26.6 15 Oeste 33 Noroeste 0 -- -- 50
2018-09-03 19:00:00 28.6 24 Noroeste 34 Noroeste 0 -- -- 47
2018-09-03 18:00:00 30.4 23 Noroeste 35 Oeste 0 -- -- 41
2018-09-03 17:00:00 31.7 22 Noroeste 32 Noroeste 0 -- -- 38
2018-09-03 16:00:00 32.6 13 Sur 30 Sur 0 -- -- 36
2018-09-03 15:00:00 32.5 15 Sur 30 Sur 0 -- -- 39
2018-09-03 14:00:00 28.8 6 Oeste 15 Sudoeste 0 -- -- 52
2018-09-03 13:00:00 26.2 7 Sudoeste 12 Sudoeste 0 -- -- 62
2018-09-03 12:00:00 25.6 6 Noroeste 15 Norte 0 -- -- 65
2018-09-03 11:00:00 24 9 Norte 16 Norte 0 -- -- 72
2018-09-03 10:00:00 21.9 10 Norte 14 Norte 0 -- -- 83
2018-09-03 09:00:00 20.9 5 Nordeste 10 Nordeste 0 -- -- 87
2018-09-03 08:00:00 20.4 6 Nordeste 14 Norte 0 -- -- 88
2018-09-03 07:00:00 20.6 8 Norte 12 Nordeste 0 -- -- 87
2018-09-03 06:00:00 20.5 8 Norte 14 Norte 0 -- -- 88
2018-09-03 05:00:00 20.6 9 Norte 14 Norte 0 -- -- 87
2018-09-03 04:00:00 21 8 Norte 12 Norte 0 -- -- 82
2018-09-03 03:00:00 22.5 4 Norte 17 Oeste 0 -- -- 64
2018-09-03 02:00:00 24.7 14 Sudoeste 22 Sudoeste 0 -- -- 56
2018-09-03 01:00:00 25.5 8 Sudoeste 31 Sur 0 -- -- 51
2018-09-03 00:00:00 26 23 Sur 36 Sur 0 -- -- 53
2018-09-02 23:00:00 26 18 Sudoeste 29 Sudoeste 0 -- -- 52
2018-09-02 22:00:00 27.1 11 Sur 32 Sur 0 -- -- 45
2018-09-02 21:00:00 28.5 22 Sur 32 Sudeste 0 -- -- 37
2018-09-02 20:00:00 30.6 27 Sur 40 Sur 0 -- -- 32
2018-09-02 19:00:00 31.9 29 Sur 40 Sur 0 -- -- 35
2018-09-02 18:00:00 32.8 26 Sur 42 Sur 0 -- -- 31
2018-09-02 17:00:00 32.9 30 Sur 45 Sur 0 -- -- 31
2018-09-02 16:00:00 32.9 32 Sur 43 Sur 0 -- -- 35
2018-09-02 15:00:00 32.8 30 Sur 44 Sur 0 -- -- 36
2018-09-02 14:00:00 32.1 28 Sur 44 Sur 0 -- -- 37
2018-09-02 13:00:00 31.4 28 Sur 38 Sur 0 -- -- 39
2018-09-02 12:00:00 30.4 22 Sur 37 Sur 0 -- -- 40
2018-09-02 11:00:00 28.1 20 Sur 32 Sur 0 -- -- 39
2018-09-02 10:00:00 24.7 8 Sudoeste 22 Sur 0 -- -- 55
2018-09-02 09:00:00 22.9 11 Sudoeste 22 Sudoeste 0 -- -- 59
2018-09-02 08:00:00 23.3 14 Sudoeste 33 Sur 0 -- -- 55
2018-09-02 07:00:00 23.2 16 Sur 38 Sur 0 -- -- 60
2018-09-02 06:00:00 23.4 24 Sur 41 Sur 0 -- -- 63
2018-09-02 05:00:00 23.3 22 Sur 39 Sur 0 -- -- 68
2018-09-02 04:00:00 23.1 26 Sur 44 Sur 0 -- -- 72
2018-09-02 03:00:00 23.2 27 Sur 39 Sur 0 -- -- 73
2018-09-02 02:00:00 23.6 20 Sur 40 Sur 0 -- -- 71
2018-09-02 01:00:00 23.9 20 Sur 31 Sudeste 0 -- -- 68
2018-09-02 00:00:00 24.3 15 Sur 23 Sur 0 -- -- 65
2018-09-01 23:00:00 24.6 3 Sudoeste 27 Sur 0 -- -- 61
2018-09-01 22:00:00 25.6 15 Sur 31 Sur 0 -- -- 57
2018-09-01 21:00:00 26.5 14 Sur 37 Sur 0 -- -- 54
2018-09-01 20:00:00 28.2 22 Sur 40 Sur 0 -- -- 51
2018-09-01 19:00:00 30.1 24 Sur 37 Sudeste 0 -- -- 45
2018-09-01 18:00:00 31.2 27 Sur 43 Sur 0 -- -- 40
2018-09-01 17:00:00 31.6 28 Sur 42 Sur 0 -- -- 41
2018-09-01 16:00:00 31.6 26 Sur 45 Sur 0 -- -- 40
2018-09-01 15:00:00 31.3 28 Sur 45 Sudoeste 0 -- -- 44
2018-09-01 14:00:00 30.6 30 Sur 41 Sur 0 -- -- 46
2018-09-01 13:00:00 29.8 28 Sur 42 Sur 0 -- -- 49
2018-09-01 12:00:00 28.1 29 Sur 40 Sur 0 -- -- 55
2018-09-01 11:00:00 26.7 22 Sur 31 Sur 0 -- -- 60
2018-09-01 10:00:00 24.9 22 Sur 30 Sur 0 -- -- 67
2018-09-01 09:00:00 22.4 19 Sur 30 Sur 0 -- -- 80
2018-09-01 08:00:00 21.3 15 Sur 26 Sur 0 -- -- 85
2018-09-01 07:00:00 21.3 15 Sur 26 Sur 0 -- -- 85
2018-09-01 06:00:00 21.7 22 Sur 40 Sur 0 -- -- 82
2018-09-01 05:00:00 21.8 24 Sur 34 Sur 0 -- -- 82
2018-09-01 04:00:00 22.1 22 Sur 36 Sur 0 -- -- 79
2018-09-01 03:00:00 22.4 29 Sur 41 Sur 0 -- -- 78
2018-09-01 02:00:00 22.9 24 Sur 35 Sur 0 -- -- 75
2018-09-01 01:00:00 23.1 9 Sur 27 Sur 0 -- -- 73
2018-09-01 00:00:00 23.2 12 Sur 17 Sudoeste 0 -- -- 69
2018-08-31 23:00:00 24.4 10 Sudoeste 17 Sudoeste 0 -- -- 66
2018-08-31 22:00:00 24.9 9 Sur 20 Sudoeste 0 -- -- 64
2018-08-31 21:00:00 26.8 10 Sur 29 Sur 0 -- -- 56
2018-08-31 20:00:00 28.6 16 Sur 33 Sur 0 -- -- 51
2018-08-31 19:00:00 30.1 27 Sur 36 Sur 0 -- -- 48
2018-08-31 18:00:00 32 21 Sur 35 Sur 0 -- -- 42
2018-08-31 17:00:00 32.6 19 Sur 31 Sur 0 -- -- 41
2018-08-31 16:00:00 32.6 18 Sur 32 Sur 0 -- -- 41
2018-08-31 15:00:00 31.8 21 Sur 33 Sur 0 -- -- 45
2018-08-31 14:00:00 31.4 17 Sur 31 Sur 0 -- -- 44
2018-08-31 13:00:00 30.4 17 Sur 28 Sur 0 -- -- 47
2018-08-31 12:00:00 28.7 17 Sur 26 Sur 0 -- -- 52
2018-08-31 11:00:00 26.9 14 Sur 21 Sur 0 -- -- 57
2018-08-31 10:00:00 24.5 10 Sur 15 Sudeste 0 -- -- 67
2018-08-31 09:00:00 19.8 0 Calma 5 Noroeste 0 -- -- 84
2018-08-31 08:00:00 19.5 2 Sur 8 Nordeste 0 -- -- 85
2018-08-31 07:00:00 20 4 Sur 9 Sudoeste 0 -- -- 82
2018-08-31 06:00:00 20.7 5 Sur 11 Sur 0 -- -- 81
2018-08-31 05:00:00 21.4 8 Sur 15 Sudoeste 0 -- -- 80
2018-08-31 04:00:00 21.6 7 Sudoeste 18 Sudoeste 0 -- -- 80
2018-08-31 03:00:00 22.2 13 Sudoeste 22 Sur 0 -- -- 78
2018-08-31 02:00:00 22.5 15 Sur 34 Sur 0 -- -- 76
2018-08-31 01:00:00 22.8 23 Sur 41 Sur 0 -- -- 74
2018-08-31 00:00:00 23.7 26 Sur 38 Sur 0 -- -- 72
2018-08-30 23:00:00 24.5 12 Sur 17 Sur 0 -- -- 64
2018-08-30 22:00:00 25.7 9 Sudoeste 19 Sur 0 -- -- 62
2018-08-30 21:00:00 26.8 16 Sur 26 Sur 0 -- -- 57
2018-08-30 20:00:00 29.2 18 Sur 25 Sudeste 0 -- -- 49
2018-08-30 19:00:00 30.5 14 Sur 34 Sur 0 -- -- 43
2018-08-30 18:00:00 31.1 17 Sur 35 Sur 0 -- -- 45
2018-08-30 17:00:00 31 18 Sur 31 Sur 0 -- -- 44
2018-08-30 16:00:00 30.9 21 Sur 34 Sur 0 -- -- 45
2018-08-30 15:00:00 30.8 21 Sur 35 Sur 0 -- -- 46
2018-08-30 14:00:00 30.6 17 Sur 33 Sur 0 -- -- 43
2018-08-30 13:00:00 29.4 26 Sur 35 Sur 0 -- -- 46
2018-08-30 12:00:00 28 20 Sur 34 Sur 0 -- -- 49
2018-08-30 11:00:00 26.2 19 Sur 29 Sur 0 -- -- 52
2018-08-30 10:00:00 21.2 3 Sur 6 Sur 0 -- -- 59
2018-08-30 09:00:00 17.7 4 Sudeste 8 Sur 0 -- -- 68
2018-08-30 08:00:00 15.6 3 Norte 7 Noroeste 0 -- -- 72
2018-08-30 07:00:00 15.9 4 Oeste 8 Noroeste 0 -- -- 69
2018-08-30 06:00:00 16.8 0 Calma 5 Noroeste 0 -- -- 72
2018-08-30 05:00:00 18 0 Calma 6 Noroeste 0 -- -- 67
2018-08-30 04:00:00 18.5 0 Calma 4 Este 0 -- -- 62
2018-08-30 03:00:00 19 2 Norte 8 Este 0 -- -- 60
2018-08-30 02:00:00 20.8 3 Este 8 Nordeste 0 -- -- 61
2018-08-30 01:00:00 21.7 6 Nordeste 9 Nordeste 0 -- -- 59
2018-08-30 00:00:00 23.4 2 Este 5 Sudeste 0 -- -- 49
2018-08-29 23:00:00 24.4 4 Noroeste 12 Oeste 0 -- -- 44
2018-08-29 22:00:00 26.1 4 Oeste 13 Noroeste 0 -- -- 40
2018-08-29 21:00:00 27.8 12 Oeste 25 Noroeste 0 -- -- 36
2018-08-29 20:00:00 29.8 18 Noroeste 31 Noroeste 0 -- -- 31
2018-08-29 19:00:00 31 21 Noroeste 30 Noroeste 0 -- -- 30
2018-08-29 18:00:00 31.7 16 Noroeste 29 Noroeste 0 -- -- 31
2018-08-29 17:00:00 31.6 17 Noroeste 29 Noroeste 0 -- -- 32
2018-08-29 16:00:00 31.4 11 Noroeste 20 Noroeste 0 -- -- 34
2018-08-29 15:00:00 30.9 7 Nordeste 18 Noroeste 0 -- -- 40
2018-08-29 14:00:00 29.4 8 Noroeste 21 Norte 0 -- -- 45
2018-08-29 13:00:00 28.5 10 Norte 17 Norte 0 -- -- 48
2018-08-29 12:00:00 26.5 8 Norte 14 Norte 0 -- -- 55
2018-08-29 11:00:00 24.2 10 Norte 19 Norte 0 -- -- 67
2018-08-29 10:00:00 23 10 Norte 16 Norte 0 -- -- 70
2018-08-29 09:00:00 20.2 8 Norte 13 Norte 0 -- -- 78
2018-08-29 08:00:00 18.3 6 Nordeste 8 Nordeste 0 -- -- 81
2018-08-29 07:00:00 19.1 4 Nordeste 10 Norte 0 -- -- 80
2018-08-29 06:00:00 19.5 2 Este 12 Norte 0 -- -- 79
2018-08-29 05:00:00 20.5 0 Calma 6 Sudeste 0 -- -- 78
2018-08-29 04:00:00 20.4 8 Sudeste 9 Sudeste 0 -- -- 77
2018-08-29 03:00:00 20.9 6 Sur 9 Sur 0 -- -- 73
2018-08-29 02:00:00 22.2 5 Sur 18 Sudoeste 0 -- -- 69
2018-08-29 01:00:00 23.7 14 Sudoeste 19 Sudoeste 0 -- -- 65
2018-08-29 00:00:00 24.6 13 Sudoeste 19 Sudoeste 0 -- -- 60
2018-08-28 23:00:00 25.5 12 Sudoeste 30 Sudoeste 0 -- -- 57
2018-08-28 22:00:00 27.2 14 Sudoeste 24 Sudoeste 0 -- -- 50
2018-08-28 21:00:00 28.6 12 Sur 24 Sur 0 -- -- 44
2018-08-28 20:00:00 31.3 16 Sur 29 Sur 0 -- -- 34
2018-08-28 19:00:00 33 21 Sur 32 Sur 0 -- -- 31
2018-08-28 18:00:00 34.1 22 Sur 35 Sur 0 -- -- 30
2018-08-28 17:00:00 34.4 28 Sur 37 Sur 0 -- -- 29
2018-08-28 16:00:00 34.6 25 Sur 40 Sur 0 -- -- 29
2018-08-28 15:00:00 34.2 26 Sur 37 Sudeste 0 -- -- 30
2018-08-28 14:00:00 34.4 19 Sur 32 Sur 0 -- -- 31
2018-08-28 13:00:00 32 4 Sur 11 Oeste 0 -- -- 37
2018-08-28 12:00:00 29.7 4 Sudoeste 12 Norte 0 -- -- 45
2018-08-28 11:00:00 28.3 4 Este 10 Sur 0 -- -- 50
2018-08-28 10:00:00 24.9 6 Norte 14 Sudeste 0 -- -- 62
2018-08-28 09:00:00 21.8 6 Nordeste 14 Norte 0 -- -- 72
2018-08-28 08:00:00 20 8 Norte 13 Norte 0 -- -- 73
2018-08-28 07:00:00 21.7 4 Sur 16 Oeste 0 -- -- 68
2018-08-28 06:00:00 22.1 11 Noroeste 15 Sudoeste 0 -- -- 69
2018-08-28 05:00:00 23.2 10 Sudoeste 21 Sur 0 -- -- 68
2018-08-28 04:00:00 24 3 Oeste 54 Sur 0 -- -- 66
2018-08-28 03:00:00 24.5 39 Sur 62 Sur 0 -- -- 64
2018-08-28 02:00:00 25.1 9 Sudoeste 28 Sudoeste 0 -- -- 52
2018-08-28 01:00:00 25.1 18 Sudoeste 41 Oeste 0 -- -- 57
2018-08-28 00:00:00 24.1 28 Sudoeste 37 Sur 0 -- -- 66
2018-08-27 23:00:00 24.9 19 Sur 50 Sur 0 -- -- 66
2018-08-27 22:00:00 26.9 29 Sur 49 Sur 0 -- -- 56
2018-08-27 21:00:00 29 28 Sur 40 Sur 0 -- -- 42
2018-08-27 20:00:00 30.3 21 Sudeste 39 Este 0 -- -- 38
2018-08-27 19:00:00 29.8 21 Sur 43 Sudoeste 0 -- -- 41
2018-08-27 18:00:00 31.6 33 Sudoeste 48 Sudoeste 0 -- -- 35
2018-08-27 17:00:00 34.8 26 Sur 39 Sur 0 -- -- 36
2018-08-27 16:00:00 35.1 20 Sur 35 Sur 0 -- -- 34
2018-08-27 15:00:00 33.8 23 Sur 35 Sudeste 0 -- -- 39
2018-08-27 14:00:00 33.8 22 Sur 41 Sur 0 -- -- 27
2018-08-27 13:00:00 31.7 23 Sur 41 Sur 0 -- -- 40
2018-08-27 12:00:00 30.6 23 Sur 37 Sur 0 -- -- 45
2018-08-27 11:00:00 28.2 27 Sur 40 Sur 0 -- -- 53
2018-08-27 10:00:00 26.2 22 Sur 41 Sur 0 -- -- 58
2018-08-27 09:00:00 24 26 Sur 40 Sur 0 -- -- 66
2018-08-27 08:00:00 22.7 28 Sur 45 Sur 0 -- -- 67
2018-08-27 07:00:00 21.3 3 Sudeste 23 Sur 0 -- -- 66
2018-08-27 06:00:00 20.8 13 Sur 21 Sur 0 -- -- 66
2018-08-27 05:00:00 20.9 8 Sur 12 Sur 0 -- -- 67
2018-08-27 04:00:00 21.2 3 Oeste 10 Sudoeste 0 -- -- 60
2018-08-27 03:00:00 21.9 8 Sur 18 Sudoeste 0 -- -- 60
2018-08-27 02:00:00 22.2 10 Sudoeste 14 Sudoeste 0 -- -- 63
2018-08-27 01:00:00 22.1 10 Sur 15 Sur 0 -- -- 61
2018-08-27 00:00:00 23.8 4 Sudoeste 13 Sur 0 -- -- 56
2018-08-26 23:00:00 25.2 9 Sudoeste 14 Sur 0 -- -- 51
2018-08-26 22:00:00 26.7 10 Sur 17 Sur 0 -- -- 45
2018-08-26 21:00:00 29 13 Sur 26 Sur 0 -- -- 39
2018-08-26 20:00:00 31.5 19 Sur 31 Sur 0 -- -- 34
2018-08-26 19:00:00 33 23 Sur 35 Sur 0 -- -- 30
2018-08-26 18:00:00 34 24 Sur 32 Sur 0 -- -- 28
2018-08-26 17:00:00 34.3 23 Sur 39 Sur 0 -- -- 28
2018-08-26 16:00:00 33.5 28 Sur 42 Sur 0 -- -- 29
2018-08-26 15:00:00 33.2 30 Sur 41 Sur 0 -- -- 29
2018-08-26 14:00:00 32.9 27 Sur 39 Sur 0 -- -- 34
2018-08-26 13:00:00 32 24 Sur 37 Sur 0 -- -- 35
2018-08-26 12:00:00 30.9 19 Sur 28 Sur 0 -- -- 38
2018-08-26 11:00:00 29.4 17 Sur 25 Sur 0 -- -- 34
2018-08-26 10:00:00 23.9 3 Oeste 6 Sudoeste 0 -- -- 49
2018-08-26 09:00:00 20.7 2 Sudoeste 11 Sur 0 -- -- 55
2018-08-26 08:00:00 17.7 4 Sur 11 Sur 0 -- -- 63
2018-08-26 07:00:00 18.5 0 Calma 12 Sur 0 -- -- 61
2018-08-26 06:00:00 19 2 Nordeste 9 Norte 0 -- -- 60
2018-08-26 05:00:00 19.8 0 Calma 8 Noroeste 0 -- -- 54
2018-08-26 04:00:00 21.2 0 Calma 5 Oeste 0 -- -- 55
2018-08-26 03:00:00 22.2 3 Norte 7 Norte 0 -- -- 51
2018-08-26 02:00:00 24.1 5 Sudeste 7 Oeste 0 -- -- 47
2018-08-26 01:00:00 25.3 3 Noroeste 9 Norte 0 -- -- 44
2018-08-26 00:00:00 26.2 5 Nordeste 11 Norte 0 -- -- 40
2018-08-25 23:00:00 28.3 3 Sur 6 Sudoeste 0 -- -- 37
2018-08-25 22:00:00 29.7 3 Sudeste 17 Oeste 0 -- -- 35
2018-08-25 21:00:00 31.7 11 Noroeste 24 Oeste 0 -- -- 32
2018-08-25 20:00:00 33.7 17 Noroeste 28 Oeste 0 -- -- 30
2018-08-25 19:00:00 35.1 17 Noroeste 27 Noroeste 0 -- -- 26
2018-08-25 18:00:00 35.2 10 Noroeste 23 Norte 0 -- -- 23
2018-08-25 17:00:00 35.6 11 Noroeste 24 Noroeste 0 -- -- 22
2018-08-25 16:00:00 35 8 Oeste 19 Noroeste 0 -- -- 24
2018-08-25 15:00:00 36.8 6 Norte 17 Oeste 0 -- -- 18
2018-08-25 14:00:00 36.8 12 Sur 21 Sudoeste 0 -- -- 21
2018-08-25 13:00:00 34.6 5 Oeste 10 Sudoeste 0 -- -- 25
2018-08-25 12:00:00 31.2 4 Sudoeste 8 Oeste 0 -- -- 35
2018-08-25 11:00:00 27.3 3 Sudoeste 5 Sudoeste 0 -- -- 43
2018-08-25 10:00:00 23.7 0 Calma 4 Sudoeste 0 -- -- 49
2018-08-25 09:00:00 19.8 0 Calma 5 Sudoeste 0 -- -- 57
2018-08-25 08:00:00 18.9 3 Sudoeste 4 Sudoeste 0 -- -- 60
2018-08-25 07:00:00 18.3 0 Calma 6 Sudoeste 0 -- -- 59
2018-08-25 06:00:00 19.3 3 Sur 6 Sur 0 -- -- 60
2018-08-25 05:00:00 19.7 4 Sur 6 Sur 0 -- -- 58
2018-08-25 04:00:00 21 3 Sur 5 Sur 0 -- -- 56
2018-08-25 03:00:00 21.6 0 Calma 9 Sur 0 -- -- 51
2018-08-25 02:00:00 22.8 0 Calma 8 Sur 0 -- -- 52
2018-08-25 01:00:00 23.7 6 Sur 8 Sur 0 -- -- 50
2018-08-25 00:00:00 25 7 Sur 13 Sur 0 -- -- 47
2018-08-24 23:00:00 26.8 10 Sudoeste 15 Sur 0 -- -- 43
2018-08-24 22:00:00 28.1 11 Sur 21 Sur 0 -- -- 37
2018-08-24 21:00:00 30.4 16 Sur 23 Sur 0 -- -- 33
2018-08-24 20:00:00 34 14 Sur 20 Sudeste 0 -- -- 27
2018-08-24 19:00:00 36.1 10 Noroeste 20 Noroeste 0 -- -- 21
2018-08-24 18:00:00 36.3 7 Oeste 24 Norte 0 -- -- 21
2018-08-24 17:00:00 36.3 9 Norte 26 Norte 0 -- -- 22
2018-08-24 16:00:00 35.5 10 Norte 23 Noroeste 0 -- -- 23
2018-08-24 15:00:00 36.2 9 Norte 21 Noroeste 0 -- -- 23
2018-08-24 14:00:00 35.5 9 Norte 18 Norte 0 -- -- 25
2018-08-24 13:00:00 33.3 6 Sudoeste 10 Sur 0 -- -- 28
2018-08-24 12:00:00 30.6 4 Sudoeste 8 Sudoeste 0 -- -- 34
2018-08-24 11:00:00 27.3 4 Sudoeste 7 Sudoeste 0 -- -- 45
2018-08-24 10:00:00 24.1 2 Sur 4 Sudoeste 0 -- -- 54
2018-08-24 09:00:00 19.9 0 Calma 6 Oeste 0 -- -- 63
2018-08-24 08:00:00 17.6 3 Noroeste 10 Sur 0 -- -- 66
2018-08-24 07:00:00 18.4 5 Sur 6 Sudoeste 0 -- -- 66
2018-08-24 06:00:00 19 2 Oeste 5 Sudoeste 0 -- -- 63
2018-08-24 05:00:00 19.8 5 Sudeste 6 Sudeste 0 -- -- 62
2018-08-24 04:00:00 20.9 3 Oeste 5 Sudoeste 0 -- -- 58
2018-08-24 03:00:00 21.7 0 Calma 8 Norte 0 -- -- 55
2018-08-24 02:00:00 22.9 2 Sudoeste 12 Sur 0 -- -- 50
2018-08-24 01:00:00 23.2 9 Sur 12 Sur 0 -- -- 52
2018-08-24 00:00:00 24.2 2 Sudeste 9 Sudoeste 0 -- -- 51